sensor_id;sensor_type;location;lat;lon;timestamp;P1;durP1;ratioP1;P2;durP2;ratioP2
434;SDS011;204;48.942;9.256;2023-05-28T00:00:21;6.47;;;5.63;;
434;SDS011;204;48.942;9.256;2023-05-28T00:02:46;11.80;;;6.00;;
434;SDS011;204;48.942;9.256;2023-05-28T00:05:12;7.70;;;5.70;;
434;SDS011;204;48.942;9.256;2023-05-28T00:07:38;8.60;;;5.70;;
434;SDS011;204;48.942;9.256;2023-05-28T00:10:06;6.80;;;5.88;;
434;SDS011;204;48.942;9.256;2023-05-28T00:12:32;7.60;;;5.57;;
434;SDS011;204;48.942;9.256;2023-05-28T00:14:58;14.00;;;6.93;;
434;SDS011;204;48.942;9.256;2023-05-28T00:17:24;7.10;;;6.70;;
434;SDS011;204;48.942;9.256;2023-05-28T00:19:50;10.20;;;6.33;;
434;SDS011;204;48.942;9.256;2023-05-28T00:22:15;7.90;;;5.90;;
434;SDS011;204;48.942;9.256;2023-05-28T00:24:41;15.23;;;6.70;;
434;SDS011;204;48.942;9.256;2023-05-28T00:27:07;7.40;;;6.27;;
434;SDS011;204;48.942;9.256;2023-05-28T00:29:32;8.40;;;6.23;;
434;SDS011;204;48.942;9.256;2023-05-28T00:31:58;9.07;;;5.80;;
434;SDS011;204;48.942;9.256;2023-05-28T00:34:24;9.73;;;5.90;;
434;SDS011;204;48.942;9.256;2023-05-28T00:36:50;9.18;;;6.30;;
434;SDS011;204;48.942;9.256;2023-05-28T00:39:17;9.57;;;6.88;;
434;SDS011;204;48.942;9.256;2023-05-28T00:41:43;7.47;;;5.38;;
434;SDS011;204;48.942;9.256;2023-05-28T00:44:09;9.23;;;6.60;;
434;SDS011;204;48.942;9.256;2023-05-28T00:46:36;8.63;;;6.90;;
434;SDS011;204;48.942;9.256;2023-05-28T00:49:02;12.88;;;6.65;;
434;SDS011;204;48.942;9.256;2023-05-28T00:51:28;7.43;;;6.10;;
434;SDS011;204;48.942;9.256;2023-05-28T00:53:54;7.10;;;5.88;;
434;SDS011;204;48.942;9.256;2023-05-28T00:56:20;10.57;;;6.27;;
434;SDS011;204;48.942;9.256;2023-05-28T00:58:47;8.55;;;5.38;;
434;SDS011;204;48.942;9.256;2023-05-28T01:01:14;12.75;;;6.22;;
434;SDS011;204;48.942;9.256;2023-05-28T01:03:40;11.07;;;7.63;;
434;SDS011;204;48.942;9.256;2023-05-28T01:06:09;11.80;;;6.15;;
434;SDS011;204;48.942;9.256;2023-05-28T01:08:37;9.65;;;6.75;;
434;SDS011;204;48.942;9.256;2023-05-28T01:11:24;14.00;;;5.90;;
434;SDS011;204;48.942;9.256;2023-05-28T01:13:51;7.88;;;6.35;;
434;SDS011;204;48.942;9.256;2023-05-28T01:16:17;8.10;;;5.35;;
434;SDS011;204;48.942;9.256;2023-05-28T01:18:43;11.30;;;5.70;;
434;SDS011;204;48.942;9.256;2023-05-28T01:21:12;6.43;;;6.05;;
434;SDS011;204;48.942;9.256;2023-05-28T01:23:41;7.30;;;5.65;;
434;SDS011;204;48.942;9.256;2023-05-28T01:26:09;8.63;;;5.45;;
434;SDS011;204;48.942;9.256;2023-05-28T01:28:47;6.78;;;5.95;;
434;SDS011;204;48.942;9.256;2023-05-28T01:31:14;13.98;;;6.82;;
434;SDS011;204;48.942;9.256;2023-05-28T01:33:40;8.02;;;6.10;;
434;SDS011;204;48.942;9.256;2023-05-28T01:36:08;11.40;;;6.85;;
434;SDS011;204;48.942;9.256;2023-05-28T01:38:39;8.27;;;6.25;;
434;SDS011;204;48.942;9.256;2023-05-28T01:41:08;10.65;;;6.57;;
434;SDS011;204;48.942;9.256;2023-05-28T01:43:34;11.90;;;7.33;;
434;SDS011;204;48.942;9.256;2023-05-28T01:46:00;13.77;;;8.13;;
434;SDS011;204;48.942;9.256;2023-05-28T01:48:27;8.40;;;6.55;;
434;SDS011;204;48.942;9.256;2023-05-28T01:50:53;9.68;;;6.78;;
434;SDS011;204;48.942;9.256;2023-05-28T01:53:19;11.43;;;8.25;;
434;SDS011;204;48.942;9.256;2023-05-28T01:55:45;8.80;;;6.77;;
434;SDS011;204;48.942;9.256;2023-05-28T01:58:11;8.23;;;6.60;;
434;SDS011;204;48.942;9.256;2023-05-28T02:00:41;12.80;;;7.27;;
434;SDS011;204;48.942;9.256;2023-05-28T02:03:12;9.90;;;6.40;;
434;SDS011;204;48.942;9.256;2023-05-28T02:05:38;10.00;;;6.20;;
434;SDS011;204;48.942;9.256;2023-05-28T02:08:03;8.73;;;6.47;;
434;SDS011;204;48.942;9.256;2023-05-28T02:10:29;10.13;;;6.80;;
434;SDS011;204;48.942;9.256;2023-05-28T02:12:55;9.63;;;7.30;;
434;SDS011;204;48.942;9.256;2023-05-28T02:15:20;11.33;;;7.23;;
434;SDS011;204;48.942;9.256;2023-05-28T02:17:46;9.00;;;6.73;;
434;SDS011;204;48.942;9.256;2023-05-28T02:20:12;10.30;;;6.93;;
434;SDS011;204;48.942;9.256;2023-05-28T02:22:38;14.53;;;6.37;;
434;SDS011;204;48.942;9.256;2023-05-28T02:25:04;14.50;;;6.17;;
434;SDS011;204;48.942;9.256;2023-05-28T02:27:30;10.80;;;6.45;;
434;SDS011;204;48.942;9.256;2023-05-28T02:29:56;16.35;;;6.65;;
434;SDS011;204;48.942;9.256;2023-05-28T02:32:22;12.30;;;6.60;;
434;SDS011;204;48.942;9.256;2023-05-28T02:34:48;9.33;;;6.53;;
434;SDS011;204;48.942;9.256;2023-05-28T02:37:13;8.10;;;6.13;;
434;SDS011;204;48.942;9.256;2023-05-28T02:39:39;10.67;;;6.97;;
434;SDS011;204;48.942;9.256;2023-05-28T02:42:05;15.80;;;7.07;;
434;SDS011;204;48.942;9.256;2023-05-28T02:44:30;8.00;;;6.30;;
434;SDS011;204;48.942;9.256;2023-05-28T02:46:58;8.27;;;6.78;;
434;SDS011;204;48.942;9.256;2023-05-28T02:49:24;12.33;;;5.63;;
434;SDS011;204;48.942;9.256;2023-05-28T02:51:49;9.77;;;7.57;;
434;SDS011;204;48.942;9.256;2023-05-28T02:54:15;11.43;;;7.40;;
434;SDS011;204;48.942;9.256;2023-05-28T02:56:40;7.63;;;6.40;;
434;SDS011;204;48.942;9.256;2023-05-28T02:59:06;8.23;;;6.77;;
434;SDS011;204;48.942;9.256;2023-05-28T03:01:31;10.30;;;7.10;;
434;SDS011;204;48.942;9.256;2023-05-28T03:03:57;9.10;;;5.93;;
434;SDS011;204;48.942;9.256;2023-05-28T03:06:23;10.80;;;6.90;;
434;SDS011;204;48.942;9.256;2023-05-28T03:08:48;6.20;;;5.40;;
434;SDS011;204;48.942;9.256;2023-05-28T03:11:14;8.97;;;6.10;;
434;SDS011;204;48.942;9.256;2023-05-28T03:13:39;8.33;;;6.20;;
434;SDS011;204;48.942;9.256;2023-05-28T03:16:05;9.23;;;6.33;;
434;SDS011;204;48.942;9.256;2023-05-28T03:18:31;5.95;;;5.15;;
434;SDS011;204;48.942;9.256;2023-05-28T03:20:56;7.53;;;5.37;;
434;SDS011;204;48.942;9.256;2023-05-28T03:23:24;6.53;;;5.67;;
434;SDS011;204;48.942;9.256;2023-05-28T03:25:50;6.15;;;5.53;;
434;SDS011;204;48.942;9.256;2023-05-28T03:28:16;9.30;;;5.80;;
434;SDS011;204;48.942;9.256;2023-05-28T03:30:41;12.13;;;7.10;;
434;SDS011;204;48.942;9.256;2023-05-28T03:33:09;9.25;;;6.50;;
434;SDS011;204;48.942;9.256;2023-05-28T03:35:35;7.07;;;5.70;;
434;SDS011;204;48.942;9.256;2023-05-28T03:38:00;7.10;;;5.63;;
434;SDS011;204;48.942;9.256;2023-05-28T03:40:26;9.03;;;6.27;;
434;SDS011;204;48.942;9.256;2023-05-28T03:42:52;9.80;;;5.70;;
434;SDS011;204;48.942;9.256;2023-05-28T03:45:17;8.10;;;6.87;;
434;SDS011;204;48.942;9.256;2023-05-28T03:47:43;7.07;;;6.13;;
434;SDS011;204;48.942;9.256;2023-05-28T03:50:08;6.20;;;5.90;;
434;SDS011;204;48.942;9.256;2023-05-28T03:52:35;9.25;;;6.30;;
434;SDS011;204;48.942;9.256;2023-05-28T03:55:02;9.27;;;6.50;;
434;SDS011;204;48.942;9.256;2023-05-28T03:57:29;8.40;;;5.70;;
434;SDS011;204;48.942;9.256;2023-05-28T03:59:54;10.87;;;6.50;;
434;SDS011;204;48.942;9.256;2023-05-28T04:02:23;13.00;;;6.53;;
434;SDS011;204;48.942;9.256;2023-05-28T04:04:49;9.80;;;7.30;;
434;SDS011;204;48.942;9.256;2023-05-28T04:07:14;9.70;;;6.70;;
434;SDS011;204;48.942;9.256;2023-05-28T04:09:40;7.10;;;6.77;;
434;SDS011;204;48.942;9.256;2023-05-28T04:12:06;8.60;;;7.07;;
434;SDS011;204;48.942;9.256;2023-05-28T04:14:32;8.17;;;6.37;;
434;SDS011;204;48.942;9.256;2023-05-28T04:16:57;6.20;;;5.23;;
434;SDS011;204;48.942;9.256;2023-05-28T04:19:23;8.10;;;5.50;;
434;SDS011;204;48.942;9.256;2023-05-28T04:21:48;14.90;;;6.60;;
434;SDS011;204;48.942;9.256;2023-05-28T04:24:15;7.88;;;6.05;;
434;SDS011;204;48.942;9.256;2023-05-28T04:26:40;6.33;;;5.90;;
434;SDS011;204;48.942;9.256;2023-05-28T04:29:06;9.07;;;5.93;;
434;SDS011;204;48.942;9.256;2023-05-28T04:31:32;9.00;;;6.27;;
434;SDS011;204;48.942;9.256;2023-05-28T04:33:58;7.63;;;5.83;;
434;SDS011;204;48.942;9.256;2023-05-28T04:36:23;9.27;;;5.70;;
434;SDS011;204;48.942;9.256;2023-05-28T04:38:54;9.10;;;6.60;;
434;SDS011;204;48.942;9.256;2023-05-28T04:41:22;7.93;;;6.40;;
434;SDS011;204;48.942;9.256;2023-05-28T04:43:48;6.65;;;6.05;;
434;SDS011;204;48.942;9.256;2023-05-28T04:46:14;6.10;;;5.80;;
434;SDS011;204;48.942;9.256;2023-05-28T04:48:39;6.10;;;5.80;;
434;SDS011;204;48.942;9.256;2023-05-28T04:51:05;13.83;;;7.23;;
434;SDS011;204;48.942;9.256;2023-05-28T04:53:31;10.50;;;7.20;;
434;SDS011;204;48.942;9.256;2023-05-28T04:55:58;8.30;;;7.32;;
434;SDS011;204;48.942;9.256;2023-05-28T04:58:24;8.18;;;7.82;;
434;SDS011;204;48.942;9.256;2023-05-28T05:00:50;12.67;;;7.93;;
434;SDS011;204;48.942;9.256;2023-05-28T05:03:17;10.48;;;7.80;;
434;SDS011;204;48.942;9.256;2023-05-28T05:05:43;14.23;;;7.60;;
434;SDS011;204;48.942;9.256;2023-05-28T05:08:08;10.73;;;7.23;;
434;SDS011;204;48.942;9.256;2023-05-28T05:10:38;13.23;;;8.18;;
434;SDS011;204;48.942;9.256;2023-05-28T05:13:04;8.52;;;6.93;;
434;SDS011;204;48.942;9.256;2023-05-28T05:15:29;8.30;;;6.63;;
434;SDS011;204;48.942;9.256;2023-05-28T05:17:55;10.33;;;6.93;;
434;SDS011;204;48.942;9.256;2023-05-28T05:20:21;6.47;;;5.90;;
434;SDS011;204;48.942;9.256;2023-05-28T05:22:46;10.13;;;6.80;;
434;SDS011;204;48.942;9.256;2023-05-28T05:25:12;9.50;;;6.43;;
434;SDS011;204;48.942;9.256;2023-05-28T05:27:38;11.33;;;6.80;;
434;SDS011;204;48.942;9.256;2023-05-28T05:30:03;7.13;;;6.60;;
434;SDS011;204;48.942;9.256;2023-05-28T05:32:30;7.47;;;7.07;;
434;SDS011;204;48.942;9.256;2023-05-28T05:34:59;8.03;;;6.90;;
434;SDS011;204;48.942;9.256;2023-05-28T05:37:25;9.20;;;5.90;;
434;SDS011;204;48.942;9.256;2023-05-28T05:39:50;8.13;;;6.30;;
434;SDS011;204;48.942;9.256;2023-05-28T05:42:16;6.90;;;5.80;;
434;SDS011;204;48.942;9.256;2023-05-28T05:44:42;14.27;;;6.63;;
434;SDS011;204;48.942;9.256;2023-05-28T05:47:07;7.70;;;5.60;;
434;SDS011;204;48.942;9.256;2023-05-28T05:49:33;7.20;;;5.10;;
434;SDS011;204;48.942;9.256;2023-05-28T05:51:58;9.03;;;5.67;;
434;SDS011;204;48.942;9.256;2023-05-28T05:54:24;7.17;;;6.73;;
434;SDS011;204;48.942;9.256;2023-05-28T05:56:50;8.10;;;5.30;;
434;SDS011;204;48.942;9.256;2023-05-28T05:59:17;9.70;;;5.50;;
434;SDS011;204;48.942;9.256;2023-05-28T06:01:43;7.90;;;6.20;;
434;SDS011;204;48.942;9.256;2023-05-28T06:04:08;11.20;;;7.20;;
434;SDS011;204;48.942;9.256;2023-05-28T06:06:34;6.43;;;4.97;;
434;SDS011;204;48.942;9.256;2023-05-28T06:09:02;5.93;;;4.97;;
434;SDS011;204;48.942;9.256;2023-05-28T06:11:28;8.53;;;5.10;;
434;SDS011;204;48.942;9.256;2023-05-28T06:13:53;7.57;;;5.07;;
434;SDS011;204;48.942;9.256;2023-05-28T06:16:22;8.27;;;5.00;;
434;SDS011;204;48.942;9.256;2023-05-28T06:18:47;7.40;;;4.60;;
434;SDS011;204;48.942;9.256;2023-05-28T06:21:13;8.73;;;5.07;;
434;SDS011;204;48.942;9.256;2023-05-28T06:23:39;5.50;;;5.00;;
434;SDS011;204;48.942;9.256;2023-05-28T06:26:04;6.53;;;4.40;;
434;SDS011;204;48.942;9.256;2023-05-28T06:28:30;8.70;;;5.43;;
434;SDS011;204;48.942;9.256;2023-05-28T06:30:56;8.87;;;5.23;;
434;SDS011;204;48.942;9.256;2023-05-28T06:33:21;8.37;;;5.60;;
434;SDS011;204;48.942;9.256;2023-05-28T06:35:47;8.40;;;4.80;;
434;SDS011;204;48.942;9.256;2023-05-28T06:38:13;8.10;;;4.90;;
434;SDS011;204;48.942;9.256;2023-05-28T06:40:38;8.70;;;6.10;;
434;SDS011;204;48.942;9.256;2023-05-28T06:43:04;5.60;;;4.80;;
434;SDS011;204;48.942;9.256;2023-05-28T06:45:30;9.77;;;5.70;;
434;SDS011;204;48.942;9.256;2023-05-28T06:47:58;6.70;;;5.33;;
434;SDS011;204;48.942;9.256;2023-05-28T06:50:23;6.80;;;4.50;;
434;SDS011;204;48.942;9.256;2023-05-28T06:52:49;10.97;;;5.20;;
434;SDS011;204;48.942;9.256;2023-05-28T06:55:15;7.70;;;4.90;;
434;SDS011;204;48.942;9.256;2023-05-28T06:57:41;9.87;;;5.80;;
434;SDS011;204;48.942;9.256;2023-05-28T07:00:07;7.03;;;4.67;;
434;SDS011;204;48.942;9.256;2023-05-28T07:02:38;8.70;;;5.40;;
434;SDS011;204;48.942;9.256;2023-05-28T07:05:03;8.70;;;5.27;;
434;SDS011;204;48.942;9.256;2023-05-28T07:07:30;8.03;;;4.63;;
434;SDS011;204;48.942;9.256;2023-05-28T07:09:56;5.70;;;4.80;;
434;SDS011;204;48.942;9.256;2023-05-28T07:12:22;5.23;;;4.30;;
434;SDS011;204;48.942;9.256;2023-05-28T07:14:47;9.90;;;5.30;;
434;SDS011;204;48.942;9.256;2023-05-28T07:17:13;8.77;;;5.57;;
434;SDS011;204;48.942;9.256;2023-05-28T07:19:39;8.50;;;5.37;;
434;SDS011;204;48.942;9.256;2023-05-28T07:22:04;6.40;;;4.80;;
434;SDS011;204;48.942;9.256;2023-05-28T07:24:30;5.47;;;4.20;;
434;SDS011;204;48.942;9.256;2023-05-28T07:26:56;6.60;;;4.27;;
434;SDS011;204;48.942;9.256;2023-05-28T07:29:21;10.20;;;4.93;;
434;SDS011;204;48.942;9.256;2023-05-28T07:31:47;6.10;;;4.17;;
434;SDS011;204;48.942;9.256;2023-05-28T07:34:12;7.60;;;4.60;;
434;SDS011;204;48.942;9.256;2023-05-28T07:36:38;7.67;;;5.03;;
434;SDS011;204;48.942;9.256;2023-05-28T07:39:07;6.40;;;5.23;;
434;SDS011;204;48.942;9.256;2023-05-28T07:41:35;5.87;;;3.70;;
434;SDS011;204;48.942;9.256;2023-05-28T07:44:00;6.43;;;3.70;;
434;SDS011;204;48.942;9.256;2023-05-28T07:46:26;6.27;;;4.53;;
434;SDS011;204;48.942;9.256;2023-05-28T07:48:52;7.17;;;4.80;;
434;SDS011;204;48.942;9.256;2023-05-28T07:51:17;6.13;;;4.40;;
434;SDS011;204;48.942;9.256;2023-05-28T07:53:43;10.10;;;4.60;;
434;SDS011;204;48.942;9.256;2023-05-28T07:56:09;6.80;;;4.23;;
434;SDS011;204;48.942;9.256;2023-05-28T07:58:35;6.97;;;4.60;;
434;SDS011;204;48.942;9.256;2023-05-28T08:01:00;5.30;;;3.70;;
434;SDS011;204;48.942;9.256;2023-05-28T08:03:26;7.77;;;4.57;;
434;SDS011;204;48.942;9.256;2023-05-28T08:05:55;7.30;;;4.60;;
434;SDS011;204;48.942;9.256;2023-05-28T08:08:20;10.80;;;5.00;;
434;SDS011;204;48.942;9.256;2023-05-28T08:10:46;10.07;;;4.40;;
434;SDS011;204;48.942;9.256;2023-05-28T08:13:11;5.97;;;4.00;;
434;SDS011;204;48.942;9.256;2023-05-28T08:15:37;6.53;;;4.00;;
434;SDS011;204;48.942;9.256;2023-05-28T08:18:03;9.37;;;4.57;;
434;SDS011;204;48.942;9.256;2023-05-28T08:20:28;5.47;;;4.37;;
434;SDS011;204;48.942;9.256;2023-05-28T08:22:54;9.53;;;5.10;;
434;SDS011;204;48.942;9.256;2023-05-28T08:25:20;9.17;;;4.87;;
434;SDS011;204;48.942;9.256;2023-05-28T08:27:46;5.60;;;4.80;;
434;SDS011;204;48.942;9.256;2023-05-28T08:30:11;7.67;;;4.30;;
434;SDS011;204;48.942;9.256;2023-05-28T08:32:40;6.30;;;4.50;;
434;SDS011;204;48.942;9.256;2023-05-28T08:35:06;8.10;;;4.63;;
434;SDS011;204;48.942;9.256;2023-05-28T08:37:35;11.13;;;5.33;;
434;SDS011;204;48.942;9.256;2023-05-28T08:40:01;9.10;;;4.53;;
434;SDS011;204;48.942;9.256;2023-05-28T08:42:29;7.13;;;4.80;;
434;SDS011;204;48.942;9.256;2023-05-28T08:44:55;9.40;;;5.30;;
434;SDS011;204;48.942;9.256;2023-05-28T08:47:21;5.60;;;4.40;;
434;SDS011;204;48.942;9.256;2023-05-28T08:49:53;7.07;;;4.87;;
434;SDS011;204;48.942;9.256;2023-05-28T08:52:19;7.03;;;4.37;;
434;SDS011;204;48.942;9.256;2023-05-28T08:54:48;6.57;;;4.53;;
434;SDS011;204;48.942;9.256;2023-05-28T08:57:14;5.40;;;4.00;;
434;SDS011;204;48.942;9.256;2023-05-28T08:59:41;7.03;;;4.90;;
434;SDS011;204;48.942;9.256;2023-05-28T09:02:07;6.40;;;4.10;;
434;SDS011;204;48.942;9.256;2023-05-28T09:04:36;8.87;;;4.60;;
434;SDS011;204;48.942;9.256;2023-05-28T09:07:02;7.20;;;4.67;;
434;SDS011;204;48.942;9.256;2023-05-28T09:09:27;6.20;;;4.67;;
434;SDS011;204;48.942;9.256;2023-05-28T09:12:03;9.13;;;4.87;;
434;SDS011;204;48.942;9.256;2023-05-28T09:14:36;5.73;;;3.90;;
434;SDS011;204;48.942;9.256;2023-05-28T09:17:04;9.47;;;4.40;;
434;SDS011;204;48.942;9.256;2023-05-28T09:19:29;5.30;;;4.13;;
434;SDS011;204;48.942;9.256;2023-05-28T09:21:56;6.57;;;4.20;;
434;SDS011;204;48.942;9.256;2023-05-28T09:24:23;7.50;;;4.57;;
434;SDS011;204;48.942;9.256;2023-05-28T09:26:54;7.30;;;5.67;;
434;SDS011;204;48.942;9.256;2023-05-28T09:29:20;7.40;;;4.13;;
434;SDS011;204;48.942;9.256;2023-05-28T09:31:57;6.77;;;4.87;;
434;SDS011;204;48.942;9.256;2023-05-28T09:34:27;8.70;;;4.30;;
434;SDS011;204;48.942;9.256;2023-05-28T09:37:01;7.10;;;4.40;;
434;SDS011;204;48.942;9.256;2023-05-28T09:39:28;7.40;;;4.27;;
434;SDS011;204;48.942;9.256;2023-05-28T09:41:57;6.17;;;4.80;;
434;SDS011;204;48.942;9.256;2023-05-28T09:44:34;7.60;;;5.17;;
434;SDS011;204;48.942;9.256;2023-05-28T09:47:14;7.27;;;4.87;;
434;SDS011;204;48.942;9.256;2023-05-28T09:49:44;10.70;;;5.03;;
434;SDS011;204;48.942;9.256;2023-05-28T09:52:13;5.20;;;4.40;;
434;SDS011;204;48.942;9.256;2023-05-28T09:54:43;6.40;;;4.40;;
434;SDS011;204;48.942;9.256;2023-05-28T09:57:27;5.47;;;3.00;;
434;SDS011;204;48.942;9.256;2023-05-28T09:59:55;4.50;;;3.10;;
434;SDS011;204;48.942;9.256;2023-05-28T10:02:27;8.87;;;3.87;;
434;SDS011;204;48.942;9.256;2023-05-28T10:05:14;5.20;;;3.60;;
434;SDS011;204;48.942;9.256;2023-05-28T10:07:43;8.37;;;3.60;;
434;SDS011;204;48.942;9.256;2023-05-28T10:10:11;6.73;;;4.17;;
434;SDS011;204;48.942;9.256;2023-05-28T10:12:38;4.93;;;4.10;;
434;SDS011;204;48.942;9.256;2023-05-28T10:15:06;7.33;;;4.70;;
434;SDS011;204;48.942;9.256;2023-05-28T10:17:32;6.80;;;4.50;;
434;SDS011;204;48.942;9.256;2023-05-28T10:19:58;6.50;;;3.90;;
434;SDS011;204;48.942;9.256;2023-05-28T10:22:25;5.93;;;4.17;;
434;SDS011;204;48.942;9.256;2023-05-28T10:24:51;5.90;;;4.10;;
434;SDS011;204;48.942;9.256;2023-05-28T10:27:17;7.27;;;4.40;;
434;SDS011;204;48.942;9.256;2023-05-28T10:29:44;7.27;;;4.33;;
434;SDS011;204;48.942;9.256;2023-05-28T10:32:16;7.40;;;3.23;;
434;SDS011;204;48.942;9.256;2023-05-28T10:34:42;7.00;;;4.00;;
434;SDS011;204;48.942;9.256;2023-05-28T10:37:09;7.27;;;5.40;;
434;SDS011;204;48.942;9.256;2023-05-28T10:42:13;7.27;;;4.90;;
434;SDS011;204;48.942;9.256;2023-05-28T10:47:31;6.93;;;4.83;;
434;SDS011;204;48.942;9.256;2023-05-28T10:49:58;7.27;;;4.90;;
434;SDS011;204;48.942;9.256;2023-05-28T10:52:25;5.80;;;4.27;;
434;SDS011;204;48.942;9.256;2023-05-28T10:54:52;6.60;;;4.63;;
434;SDS011;204;48.942;9.256;2023-05-28T10:57:19;6.37;;;4.70;;
434;SDS011;204;48.942;9.256;2023-05-28T11:00:06;18.93;;;6.27;;
434;SDS011;204;48.942;9.256;2023-05-28T11:02:34;6.80;;;4.27;;
434;SDS011;204;48.942;9.256;2023-05-28T11:05:02;8.77;;;4.67;;
434;SDS011;204;48.942;9.256;2023-05-28T11:07:39;6.23;;;3.70;;
434;SDS011;204;48.942;9.256;2023-05-28T11:10:07;4.90;;;3.87;;
434;SDS011;204;48.942;9.256;2023-05-28T11:12:35;4.70;;;3.60;;
434;SDS011;204;48.942;9.256;2023-05-28T11:15:03;6.67;;;4.23;;
434;SDS011;204;48.942;9.256;2023-05-28T11:17:34;7.87;;;4.10;;
434;SDS011;204;48.942;9.256;2023-05-28T11:22:46;6.47;;;3.73;;
434;SDS011;204;48.942;9.256;2023-05-28T11:25:12;5.80;;;3.73;;
434;SDS011;204;48.942;9.256;2023-05-28T11:27:38;4.73;;;3.80;;
434;SDS011;204;48.942;9.256;2023-05-28T11:30:14;9.70;;;4.37;;
434;SDS011;204;48.942;9.256;2023-05-28T11:32:42;5.87;;;4.00;;
434;SDS011;204;48.942;9.256;2023-05-28T11:35:10;7.17;;;4.80;;
434;SDS011;204;48.942;9.256;2023-05-28T11:37:41;7.03;;;4.57;;
434;SDS011;204;48.942;9.256;2023-05-28T11:40:08;4.20;;;3.87;;
434;SDS011;204;48.942;9.256;2023-05-28T11:42:39;5.97;;;3.63;;
434;SDS011;204;48.942;9.256;2023-05-28T11:45:06;4.63;;;4.30;;
434;SDS011;204;48.942;9.256;2023-05-28T11:47:33;6.40;;;4.70;;
434;SDS011;204;48.942;9.256;2023-05-28T11:50:05;6.40;;;4.27;;
434;SDS011;204;48.942;9.256;2023-05-28T11:52:32;5.20;;;3.83;;
434;SDS011;204;48.942;9.256;2023-05-28T11:54:57;6.90;;;4.20;;
434;SDS011;204;48.942;9.256;2023-05-28T11:57:27;6.20;;;4.10;;
434;SDS011;204;48.942;9.256;2023-05-28T12:02:32;4.90;;;3.60;;
434;SDS011;204;48.942;9.256;2023-05-28T12:04:59;6.07;;;3.83;;
434;SDS011;204;48.942;9.256;2023-05-28T12:07:33;7.93;;;4.10;;
434;SDS011;204;48.942;9.256;2023-05-28T12:12:41;8.67;;;3.80;;
434;SDS011;204;48.942;9.256;2023-05-28T12:15:08;4.90;;;3.77;;
434;SDS011;204;48.942;9.256;2023-05-28T12:17:35;8.63;;;3.83;;
434;SDS011;204;48.942;9.256;2023-05-28T12:20:05;4.77;;;3.27;;
434;SDS011;204;48.942;9.256;2023-05-28T12:22:41;5.73;;;3.50;;
434;SDS011;204;48.942;9.256;2023-05-28T12:25:07;8.90;;;3.90;;
434;SDS011;204;48.942;9.256;2023-05-28T12:27:33;6.60;;;3.53;;
434;SDS011;204;48.942;9.256;2023-05-28T12:30:00;7.17;;;4.90;;
434;SDS011;204;48.942;9.256;2023-05-28T12:32:29;4.90;;;4.30;;
434;SDS011;204;48.942;9.256;2023-05-28T12:34:54;7.83;;;4.40;;
434;SDS011;204;48.942;9.256;2023-05-28T12:37:23;5.30;;;4.23;;
434;SDS011;204;48.942;9.256;2023-05-28T12:39:52;4.73;;;3.60;;
434;SDS011;204;48.942;9.256;2023-05-28T12:42:18;6.50;;;4.67;;
434;SDS011;204;48.942;9.256;2023-05-28T12:44:44;5.70;;;4.20;;
434;SDS011;204;48.942;9.256;2023-05-28T12:47:09;4.40;;;3.10;;
434;SDS011;204;48.942;9.256;2023-05-28T12:49:35;7.70;;;4.20;;
434;SDS011;204;48.942;9.256;2023-05-28T12:52:01;6.60;;;4.07;;
434;SDS011;204;48.942;9.256;2023-05-28T12:54:27;5.87;;;3.70;;
434;SDS011;204;48.942;9.256;2023-05-28T12:56:52;5.50;;;4.23;;
434;SDS011;204;48.942;9.256;2023-05-28T12:59:24;7.90;;;5.40;;
434;SDS011;204;48.942;9.256;2023-05-28T13:01:51;5.27;;;3.90;;
434;SDS011;204;48.942;9.256;2023-05-28T13:04:17;5.97;;;3.83;;
434;SDS011;204;48.942;9.256;2023-05-28T13:06:43;5.73;;;3.90;;
434;SDS011;204;48.942;9.256;2023-05-28T13:09:12;6.23;;;4.00;;
434;SDS011;204;48.942;9.256;2023-05-28T13:11:42;5.27;;;4.00;;
434;SDS011;204;48.942;9.256;2023-05-28T13:14:08;7.03;;;3.77;;
434;SDS011;204;48.942;9.256;2023-05-28T13:16:34;4.27;;;3.87;;
434;SDS011;204;48.942;9.256;2023-05-28T13:19:00;6.07;;;4.00;;
434;SDS011;204;48.942;9.256;2023-05-28T13:21:27;5.40;;;4.20;;
434;SDS011;204;48.942;9.256;2023-05-28T13:23:54;7.03;;;4.37;;
434;SDS011;204;48.942;9.256;2023-05-28T13:26:19;4.57;;;3.67;;
434;SDS011;204;48.942;9.256;2023-05-28T13:28:47;12.87;;;3.90;;
434;SDS011;204;48.942;9.256;2023-05-28T13:31:12;5.13;;;3.83;;
434;SDS011;204;48.942;9.256;2023-05-28T13:33:38;4.60;;;4.00;;
434;SDS011;204;48.942;9.256;2023-05-28T13:36:04;5.50;;;3.50;;
434;SDS011;204;48.942;9.256;2023-05-28T13:38:31;9.90;;;4.90;;
434;SDS011;204;48.942;9.256;2023-05-28T13:40:58;6.80;;;4.70;;
434;SDS011;204;48.942;9.256;2023-05-28T13:43:24;6.30;;;4.00;;
434;SDS011;204;48.942;9.256;2023-05-28T13:45:50;7.23;;;3.73;;
434;SDS011;204;48.942;9.256;2023-05-28T13:48:16;5.77;;;4.77;;
434;SDS011;204;48.942;9.256;2023-05-28T13:50:41;7.03;;;4.47;;
434;SDS011;204;48.942;9.256;2023-05-28T13:53:08;8.80;;;5.40;;
434;SDS011;204;48.942;9.256;2023-05-28T13:55:33;5.57;;;3.90;;
434;SDS011;204;48.942;9.256;2023-05-28T13:57:59;6.00;;;3.80;;
434;SDS011;204;48.942;9.256;2023-05-28T14:00:25;8.50;;;4.20;;
434;SDS011;204;48.942;9.256;2023-05-28T14:02:50;6.90;;;4.50;;
434;SDS011;204;48.942;9.256;2023-05-28T14:05:16;5.93;;;4.50;;
434;SDS011;204;48.942;9.256;2023-05-28T14:07:42;7.73;;;4.00;;
434;SDS011;204;48.942;9.256;2023-05-28T14:10:08;5.17;;;4.10;;
434;SDS011;204;48.942;9.256;2023-05-28T14:12:34;7.93;;;4.57;;
434;SDS011;204;48.942;9.256;2023-05-28T14:14:59;5.40;;;4.03;;
434;SDS011;204;48.942;9.256;2023-05-28T14:17:26;9.33;;;4.87;;
434;SDS011;204;48.942;9.256;2023-05-28T14:19:51;7.83;;;4.80;;
434;SDS011;204;48.942;9.256;2023-05-28T14:22:17;7.43;;;4.23;;
434;SDS011;204;48.942;9.256;2023-05-28T14:24:42;5.20;;;4.10;;
434;SDS011;204;48.942;9.256;2023-05-28T14:27:11;5.60;;;4.60;;
434;SDS011;204;48.942;9.256;2023-05-28T14:29:36;7.80;;;4.37;;
434;SDS011;204;48.942;9.256;2023-05-28T14:32:02;4.17;;;3.97;;
434;SDS011;204;48.942;9.256;2023-05-28T14:34:28;6.63;;;4.40;;
434;SDS011;204;48.942;9.256;2023-05-28T14:36:53;5.33;;;4.40;;
434;SDS011;204;48.942;9.256;2023-05-28T14:39:19;6.23;;;4.63;;
434;SDS011;204;48.942;9.256;2023-05-28T14:41:44;8.20;;;5.03;;
434;SDS011;204;48.942;9.256;2023-05-28T14:44:10;6.53;;;4.80;;
434;SDS011;204;48.942;9.256;2023-05-28T14:46:36;6.60;;;5.00;;
434;SDS011;204;48.942;9.256;2023-05-28T14:49:01;6.90;;;4.40;;
434;SDS011;204;48.942;9.256;2023-05-28T14:51:27;6.47;;;4.37;;
434;SDS011;204;48.942;9.256;2023-05-28T14:53:53;8.13;;;4.90;;
434;SDS011;204;48.942;9.256;2023-05-28T14:56:19;8.50;;;6.23;;
434;SDS011;204;48.942;9.256;2023-05-28T14:58:45;8.40;;;4.50;;
434;SDS011;204;48.942;9.256;2023-05-28T15:01:11;7.70;;;5.20;;
434;SDS011;204;48.942;9.256;2023-05-28T15:03:36;6.33;;;5.17;;
434;SDS011;204;48.942;9.256;2023-05-28T15:06:02;7.70;;;5.37;;
434;SDS011;204;48.942;9.256;2023-05-28T15:08:28;7.83;;;5.70;;
434;SDS011;204;48.942;9.256;2023-05-28T15:10:53;6.37;;;4.80;;
434;SDS011;204;48.942;9.256;2023-05-28T15:13:19;6.93;;;4.93;;
434;SDS011;204;48.942;9.256;2023-05-28T15:15:44;6.30;;;5.13;;
434;SDS011;204;48.942;9.256;2023-05-28T15:18:10;8.33;;;5.50;;
434;SDS011;204;48.942;9.256;2023-05-28T15:20:35;6.23;;;5.10;;
434;SDS011;204;48.942;9.256;2023-05-28T15:23:01;5.87;;;5.27;;
434;SDS011;204;48.942;9.256;2023-05-28T15:25:27;10.20;;;5.40;;
434;SDS011;204;48.942;9.256;2023-05-28T15:27:56;5.33;;;5.03;;
434;SDS011;204;48.942;9.256;2023-05-28T15:30:22;11.57;;;5.80;;
434;SDS011;204;48.942;9.256;2023-05-28T15:32:48;9.50;;;5.67;;
434;SDS011;204;48.942;9.256;2023-05-28T15:35:15;5.83;;;5.23;;
434;SDS011;204;48.942;9.256;2023-05-28T15:37:41;8.30;;;5.13;;
434;SDS011;204;48.942;9.256;2023-05-28T15:40:07;11.67;;;5.90;;
434;SDS011;204;48.942;9.256;2023-05-28T15:42:34;9.23;;;5.80;;
434;SDS011;204;48.942;9.256;2023-05-28T15:45:00;10.57;;;5.13;;
434;SDS011;204;48.942;9.256;2023-05-28T15:47:26;8.27;;;6.03;;
434;SDS011;204;48.942;9.256;2023-05-28T15:49:52;6.53;;;5.73;;
434;SDS011;204;48.942;9.256;2023-05-28T15:52:17;8.80;;;5.30;;